sensor_id;sensor_type;location;lat;lon;timestamp;pressure;altitude;pressure_sealevel;temperature;humidity
33414;BME280;60055;41.884;12.534;2023-03-21T00:12:31;101127.00;;;12.59;82.64
33414;BME280;60055;41.884;12.534;2023-03-21T00:32:46;101129.50;;;12.16;84.48
33414;BME280;60055;41.884;12.534;2023-03-21T00:35:20;101129.47;;;12.41;83.09
33414;BME280;60055;41.884;12.534;2023-03-21T00:38:01;101128.31;;;12.24;83.36
33414;BME280;60055;41.884;12.534;2023-03-21T00:41:03;101120.25;;;12.27;83.16
33414;BME280;60055;41.884;12.534;2023-03-21T00:43:40;101111.41;;;12.28;83.69
33414;BME280;60055;41.884;12.534;2023-03-21T00:46:27;101107.75;;;12.31;83.93
33414;BME280;60055;41.884;12.534;2023-03-21T00:55:18;101114.16;;;12.25;83.17
33414;BME280;60055;41.884;12.534;2023-03-21T00:58:22;101115.16;;;11.98;84.24
33414;BME280;60055;41.884;12.534;2023-03-21T01:00:57;101111.44;;;11.79;84.47
33414;BME280;60055;41.884;12.534;2023-03-21T01:09:26;101105.53;;;11.69;84.85
33414;BME280;60055;41.884;12.534;2023-03-21T01:18:03;101090.72;;;11.90;83.59
33414;BME280;60055;41.884;12.534;2023-03-21T01:21:08;101090.53;;;11.71;84.17
33414;BME280;60055;41.884;12.534;2023-03-21T01:44:20;101081.63;;;11.48;84.13
33414;BME280;60055;41.884;12.534;2023-03-21T01:47:38;101082.56;;;11.19;84.87
33414;BME280;60055;41.884;12.534;2023-03-21T01:53:36;101084.16;;;11.24;84.94
33414;BME280;60055;41.884;12.534;2023-03-21T01:59:48;101079.16;;;11.15;84.19
33414;BME280;60055;41.884;12.534;2023-03-21T04:05:21;101000.81;;;11.64;78.55
33414;BME280;60055;41.884;12.534;2023-03-21T04:11:46;100993.75;;;11.64;78.19
33414;BME280;60055;41.884;12.534;2023-03-21T04:21:12;100997.22;;;11.42;78.99
33414;BME280;60055;41.884;12.534;2023-03-21T04:23:56;101003.38;;;11.42;79.01
33414;BME280;60055;41.884;12.534;2023-03-21T04:26:36;101005.88;;;11.20;79.58
33414;BME280;60055;41.884;12.534;2023-03-21T04:32:55;101004.75;;;11.27;79.70
33414;BME280;60055;41.884;12.534;2023-03-21T04:35:35;101002.47;;;11.17;80.26
33414;BME280;60055;41.884;12.534;2023-03-21T04:49:01;100994.91;;;11.06;80.03
33414;BME280;60055;41.884;12.534;2023-03-21T05:01:08;100978.34;;;10.75;80.82
33414;BME280;60055;41.884;12.534;2023-03-21T05:27:46;101000.22;;;10.78;80.70
33414;BME280;60055;41.884;12.534;2023-03-21T05:30:47;101002.19;;;10.73;81.01
33414;BME280;60055;41.884;12.534;2023-03-21T08:11:32;101033.13;;;16.06;58.51
33414;BME280;60055;41.884;12.534;2023-03-21T08:16:55;101035.00;;;16.36;58.49
33414;BME280;60055;41.884;12.534;2023-03-21T08:23:09;101035.09;;;16.02;57.70
33414;BME280;60055;41.884;12.534;2023-03-21T08:25:38;101033.41;;;16.01;58.33
33414;BME280;60055;41.884;12.534;2023-03-21T08:28:32;101039.28;;;16.23;57.52
33414;BME280;60055;41.884;12.534;2023-03-21T08:31:09;101035.97;;;16.51;56.67
33414;BME280;60055;41.884;12.534;2023-03-21T08:33:43;101031.91;;;16.28;57.53
33414;BME280;60055;41.884;12.534;2023-03-21T08:36:14;101028.78;;;16.69;56.97
33414;BME280;60055;41.884;12.534;2023-03-21T08:38:44;101036.09;;;16.65;57.02
33414;BME280;60055;41.884;12.534;2023-03-21T08:41:34;101028.72;;;16.38;57.64
33414;BME280;60055;41.884;12.534;2023-03-21T08:43:59;101020.25;;;16.78;56.75
33414;BME280;60055;41.884;12.534;2023-03-21T08:46:25;101017.41;;;16.01;58.91
33414;BME280;60055;41.884;12.534;2023-03-21T08:48:59;101018.16;;;16.36;58.30
33414;BME280;60055;41.884;12.534;2023-03-21T08:51:24;101019.78;;;17.01;57.03
33414;BME280;60055;41.884;12.534;2023-03-21T08:54:03;101009.53;;;17.09;55.91
33414;BME280;60055;41.884;12.534;2023-03-21T08:56:45;101015.31;;;17.02;55.91
33414;BME280;60055;41.884;12.534;2023-03-21T08:59:13;101006.94;;;17.23;55.31
33414;BME280;60055;41.884;12.534;2023-03-21T09:02:02;101007.56;;;17.43;54.68
33414;BME280;60055;41.884;12.534;2023-03-21T09:13:09;101004.97;;;17.11;54.93
33414;BME280;60055;41.884;12.534;2023-03-21T09:15:37;101005.91;;;17.10;55.13
33414;BME280;60055;41.884;12.534;2023-03-21T09:18:04;101015.25;;;16.41;57.62
33414;BME280;60055;41.884;12.534;2023-03-21T09:20:38;101012.66;;;16.55;56.96
33414;BME280;60055;41.884;12.534;2023-03-21T09:23:04;101012.44;;;15.95;58.20
33414;BME280;60055;41.884;12.534;2023-03-21T09:25:30;101012.78;;;16.05;58.02
33414;BME280;60055;41.884;12.534;2023-03-21T09:27:57;101011.94;;;16.20;57.86
33414;BME280;60055;41.884;12.534;2023-03-21T09:30:23;101016.69;;;16.30;58.02
33414;BME280;60055;41.884;12.534;2023-03-21T09:33:00;101019.69;;;16.24;58.18
33414;BME280;60055;41.884;12.534;2023-03-21T09:35:29;101017.00;;;16.57;57.26
33414;BME280;60055;41.884;12.534;2023-03-21T09:37:55;101022.88;;;16.31;57.61
33414;BME280;60055;41.884;12.534;2023-03-21T09:47:21;101016.03;;;16.90;57.70
33414;BME280;60055;41.884;12.534;2023-03-21T09:50:00;101016.53;;;16.80;57.56
33414;BME280;60055;41.884;12.534;2023-03-21T09:52:57;101018.63;;;16.60;58.34
33414;BME280;60055;41.884;12.534;2023-03-21T09:55:46;101023.53;;;16.83;57.64
33414;BME280;60055;41.884;12.534;2023-03-21T09:58:39;101026.44;;;16.94;57.99
33414;BME280;60055;41.884;12.534;2023-03-21T10:01:34;101011.66;;;17.18;57.25
33414;BME280;60055;41.884;12.534;2023-03-21T10:07:35;101021.41;;;17.19;54.20
33414;BME280;60055;41.884;12.534;2023-03-21T10:10:06;101018.88;;;17.32;54.50
33414;BME280;60055;41.884;12.534;2023-03-21T10:15:22;101007.25;;;17.33;54.20
33414;BME280;60055;41.884;12.534;2023-03-21T10:18:04;101012.09;;;17.11;54.62
33414;BME280;60055;41.884;12.534;2023-03-21T10:20:37;101011.09;;;17.13;54.05
33414;BME280;60055;41.884;12.534;2023-03-21T10:23:30;101015.16;;;17.34;53.47
33414;BME280;60055;41.884;12.534;2023-03-21T10:26:00;101020.34;;;17.52;53.55
33414;BME280;60055;41.884;12.534;2023-03-21T10:28:56;101018.00;;;17.31;54.51
33414;BME280;60055;41.884;12.534;2023-03-21T10:31:29;101006.06;;;17.23;53.97
33414;BME280;60055;41.884;12.534;2023-03-21T10:34:11;101013.09;;;17.40;54.26
33414;BME280;60055;41.884;12.534;2023-03-21T10:37:09;101020.78;;;17.44;54.30
33414;BME280;60055;41.884;12.534;2023-03-21T10:39:40;101012.03;;;17.42;53.89
33414;BME280;60055;41.884;12.534;2023-03-21T10:42:25;101012.72;;;17.16;54.22
33414;BME280;60055;41.884;12.534;2023-03-21T10:45:11;101023.94;;;17.36;52.75
33414;BME280;60055;41.884;12.534;2023-03-21T10:48:08;101020.66;;;17.31;52.15
33414;BME280;60055;41.884;12.534;2023-03-21T10:54:15;101021.13;;;17.54;50.70
33414;BME280;60055;41.884;12.534;2023-03-21T11:03:35;101018.50;;;17.68;50.74
33414;BME280;60055;41.884;12.534;2023-03-21T11:06:40;101018.91;;;17.90;51.45
33414;BME280;60055;41.884;12.534;2023-03-21T11:09:17;101012.06;;;18.00;50.43
33414;BME280;60055;41.884;12.534;2023-03-21T11:12:09;101020.63;;;18.05;49.70
33414;BME280;60055;41.884;12.534;2023-03-21T11:17:51;101008.22;;;17.90;48.78
33414;BME280;60055;41.884;12.534;2023-03-21T11:21:18;100997.50;;;18.18;48.98
33414;BME280;60055;41.884;12.534;2023-03-21T11:24:25;101001.06;;;18.19;48.85
33414;BME280;60055;41.884;12.534;2023-03-21T11:33:50;100991.03;;;18.08;49.00
33414;BME280;60055;41.884;12.534;2023-03-21T11:36:36;100987.41;;;18.09;48.76
33414;BME280;60055;41.884;12.534;2023-03-21T11:42:32;100984.84;;;17.94;47.77
33414;BME280;60055;41.884;12.534;2023-03-21T11:45:21;100974.31;;;18.33;48.01
33414;BME280;60055;41.884;12.534;2023-03-21T11:47:48;100973.03;;;18.38;47.15
33414;BME280;60055;41.884;12.534;2023-03-21T11:50:35;100972.69;;;18.30;46.88
33414;BME280;60055;41.884;12.534;2023-03-21T11:53:14;100979.19;;;17.98;48.55
33414;BME280;60055;41.884;12.534;2023-03-21T12:02:32;100956.69;;;17.88;49.23
33414;BME280;60055;41.884;12.534;2023-03-21T12:05:16;100955.06;;;17.85;47.72
33414;BME280;60055;41.884;12.534;2023-03-21T12:07:54;100948.38;;;17.78;47.80
33414;BME280;60055;41.884;12.534;2023-03-21T12:10:39;100940.09;;;17.69;46.73
33414;BME280;60055;41.884;12.534;2023-03-21T12:16:22;100939.22;;;17.68;49.21
33414;BME280;60055;41.884;12.534;2023-03-21T12:22:34;100921.97;;;17.60;47.12
33414;BME280;60055;41.884;12.534;2023-03-21T12:25:24;100915.13;;;17.70;47.66
33414;BME280;60055;41.884;12.534;2023-03-21T12:45:13;100905.03;;;18.96;46.59
33414;BME280;60055;41.884;12.534;2023-03-21T12:47:47;100902.34;;;18.83;46.09
33414;BME280;60055;41.884;12.534;2023-03-21T13:29:46;100865.06;;;19.45;45.23
33414;BME280;60055;41.884;12.534;2023-03-21T13:32:39;100864.53;;;20.02;43.97
33414;BME280;60055;41.884;12.534;2023-03-21T13:35:22;100853.31;;;20.20;44.86
33414;BME280;60055;41.884;12.534;2023-03-21T13:37:57;100859.78;;;20.42;44.25
33414;BME280;60055;41.884;12.534;2023-03-21T13:40:34;100850.38;;;20.60;43.06
33414;BME280;60055;41.884;12.534;2023-03-21T13:43:01;100849.03;;;20.65;42.76
33414;BME280;60055;41.884;12.534;2023-03-21T13:45:32;100846.91;;;20.81;42.14
33414;BME280;60055;41.884;12.534;2023-03-21T13:48:03;100852.34;;;20.45;43.52
33414;BME280;60055;41.884;12.534;2023-03-21T13:50:52;100848.56;;;20.36;45.90
33414;BME280;60055;41.884;12.534;2023-03-21T13:53:24;100861.03;;;20.49;46.59
33414;BME280;60055;41.884;12.534;2023-03-21T13:55:59;100853.88;;;20.13;48.61
33414;BME280;60055;41.884;12.534;2023-03-21T13:58:37;100855.38;;;20.04;48.90
33414;BME280;60055;41.884;12.534;2023-03-21T14:01:38;100855.94;;;19.35;50.59
33414;BME280;60055;41.884;12.534;2023-03-21T14:04:19;100854.69;;;19.89;49.39
33414;BME280;60055;41.884;12.534;2023-03-21T14:06:58;100846.16;;;19.34;50.09
33414;BME280;60055;41.884;12.534;2023-03-21T14:09:29;100848.81;;;18.96;51.10
33414;BME280;60055;41.884;12.534;2023-03-21T14:11:57;100845.50;;;18.80;51.78
33414;BME280;60055;41.884;12.534;2023-03-21T14:14:27;100839.25;;;18.67;52.29
33414;BME280;60055;41.884;12.534;2023-03-21T14:16:54;100845.56;;;18.66;52.17
33414;BME280;60055;41.884;12.534;2023-03-21T14:19:19;100840.47;;;18.49;52.71
33414;BME280;60055;41.884;12.534;2023-03-21T14:21:48;100846.50;;;18.52;52.90
33414;BME280;60055;41.884;12.534;2023-03-21T14:24:16;100841.94;;;18.40;53.59
33414;BME280;60055;41.884;12.534;2023-03-21T14:26:47;100840.78;;;18.71;52.64
33414;BME280;60055;41.884;12.534;2023-03-21T14:29:24;100831.97;;;18.56;53.81
33414;BME280;60055;41.884;12.534;2023-03-21T14:31:52;100841.53;;;18.46;53.52
33414;BME280;60055;41.884;12.534;2023-03-21T14:34:18;100833.47;;;18.60;53.76
33414;BME280;60055;41.884;12.534;2023-03-21T14:36:44;100831.88;;;18.70;53.12
33414;BME280;60055;41.884;12.534;2023-03-21T14:39:14;100843.03;;;18.89;52.23
33414;BME280;60055;41.884;12.534;2023-03-21T14:41:53;100851.41;;;19.10;51.35
33414;BME280;60055;41.884;12.534;2023-03-21T14:44:31;100850.84;;;18.93;51.52
33414;BME280;60055;41.884;12.534;2023-03-21T14:47:04;100846.84;;;19.12;51.08
33414;BME280;60055;41.884;12.534;2023-03-21T14:49:34;100850.47;;;19.24;50.72
33414;BME280;60055;41.884;12.534;2023-03-21T14:52:03;100846.78;;;18.87;51.49
33414;BME280;60055;41.884;12.534;2023-03-21T14:54:31;100848.41;;;18.89;51.88
33414;BME280;60055;41.884;12.534;2023-03-21T14:57:06;100854.94;;;19.11;51.37
33414;BME280;60055;41.884;12.534;2023-03-21T14:59:35;100848.31;;;19.04;51.71
33414;BME280;60055;41.884;12.534;2023-03-21T15:02:15;100852.38;;;18.97;51.57
33414;BME280;60055;41.884;12.534;2023-03-21T15:04:48;100848.81;;;18.96;51.37
33414;BME280;60055;41.884;12.534;2023-03-21T15:07:33;100849.38;;;19.01;51.55
33414;BME280;60055;41.884;12.534;2023-03-21T15:10:04;100835.66;;;18.80;52.23
33414;BME280;60055;41.884;12.534;2023-03-21T15:12:30;100835.50;;;18.57;53.47
33414;BME280;60055;41.884;12.534;2023-03-21T15:14:57;100836.81;;;18.64;53.15
33414;BME280;60055;41.884;12.534;2023-03-21T15:17:23;100842.16;;;18.37;53.59
33414;BME280;60055;41.884;12.534;2023-03-21T15:19:49;100844.25;;;18.32;53.39
33414;BME280;60055;41.884;12.534;2023-03-21T15:22:29;100839.56;;;18.35;53.39
33414;BME280;60055;41.884;12.534;2023-03-21T15:25:02;100840.78;;;18.44;52.80
33414;BME280;60055;41.884;12.534;2023-03-21T15:27:32;100848.81;;;18.44;52.86
33414;BME280;60055;41.884;12.534;2023-03-21T15:29:59;100839.78;;;18.32;52.50
33414;BME280;60055;41.884;12.534;2023-03-21T15:32:26;100842.25;;;18.35;52.69
33414;BME280;60055;41.884;12.534;2023-03-21T15:35:05;100836.16;;;18.33;52.70
33414;BME280;60055;41.884;12.534;2023-03-21T15:37:33;100833.09;;;18.25;53.24
33414;BME280;60055;41.884;12.534;2023-03-21T15:40:15;100833.97;;;18.26;52.89
33414;BME280;60055;41.884;12.534;2023-03-21T15:42:42;100832.25;;;17.98;53.50
33414;BME280;60055;41.884;12.534;2023-03-21T15:45:19;100842.88;;;17.85;53.67
33414;BME280;60055;41.884;12.534;2023-03-21T15:52:49;100849.75;;;17.61;55.31
33414;BME280;60055;41.884;12.534;2023-03-21T15:55:18;100847.75;;;17.79;55.18
33414;BME280;60055;41.884;12.534;2023-03-21T15:57:47;100844.88;;;17.82;54.07
33414;BME280;60055;41.884;12.534;2023-03-21T16:00:21;100854.34;;;17.73;53.21
33414;BME280;60055;41.884;12.534;2023-03-21T16:02:58;100858.91;;;17.71;53.45
33414;BME280;60055;41.884;12.534;2023-03-21T16:05:31;100854.25;;;17.47;53.86
33414;BME280;60055;41.884;12.534;2023-03-21T16:08:19;100862.31;;;17.31;55.19
33414;BME280;60055;41.884;12.534;2023-03-21T16:10:46;100868.44;;;17.33;54.68
33414;BME280;60055;41.884;12.534;2023-03-21T16:13:14;100871.56;;;17.25;53.93
33414;BME280;60055;41.884;12.534;2023-03-21T16:15:40;100867.97;;;17.26;54.75
33414;BME280;60055;41.884;12.534;2023-03-21T16:18:06;100868.53;;;17.46;54.32
33414;BME280;60055;41.884;12.534;2023-03-21T16:20:39;100869.72;;;17.56;54.01
33414;BME280;60055;41.884;12.534;2023-03-21T16:23:13;100868.53;;;17.46;53.07
33414;BME280;60055;41.884;12.534;2023-03-21T16:25:43;100876.06;;;17.25;53.30
33414;BME280;60055;41.884;12.534;2023-03-21T16:28:15;100874.34;;;17.10;54.17
33414;BME280;60055;41.884;12.534;2023-03-21T16:30:41;100877.75;;;17.12;54.04
33414;BME280;60055;41.884;12.534;2023-03-21T16:33:09;100885.47;;;17.02;53.32
33414;BME280;60055;41.884;12.534;2023-03-21T16:35:35;100876.38;;;16.91;53.49
33414;BME280;60055;41.884;12.534;2023-03-21T16:38:01;100879.44;;;16.99;53.04
33414;BME280;60055;41.884;12.534;2023-03-21T16:40:36;100876.38;;;16.91;53.10
33414;BME280;60055;41.884;12.534;2023-03-21T16:43:01;100880.31;;;16.99;53.63
33414;BME280;60055;41.884;12.534;2023-03-21T16:45:30;100884.91;;;17.11;54.06
33414;BME280;60055;41.884;12.534;2023-03-21T16:48:07;100890.94;;;17.29;53.69
33414;BME280;60055;41.884;12.534;2023-03-21T16:50:41;100890.47;;;17.36;53.60
33414;BME280;60055;41.884;12.534;2023-03-21T16:53:07;100890.16;;;17.41;53.04
33414;BME280;60055;41.884;12.534;2023-03-21T16:55:34;100881.88;;;17.46;52.82
33414;BME280;60055;41.884;12.534;2023-03-21T16:58:01;100884.56;;;17.46;52.59
33414;BME280;60055;41.884;12.534;2023-03-21T17:00:27;100879.13;;;17.47;52.94
33414;BME280;60055;41.884;12.534;2023-03-21T17:02:55;100881.97;;;17.44;53.32
33414;BME280;60055;41.884;12.534;2023-03-21T17:05:22;100884.66;;;17.30;54.16
33414;BME280;60055;41.884;12.534;2023-03-21T17:07:50;100875.66;;;17.17;54.66
33414;BME280;60055;41.884;12.534;2023-03-21T17:10:24;100879.97;;;17.19;54.88
33414;BME280;60055;41.884;12.534;2023-03-21T17:12:50;100872.69;;;17.07;55.50
33414;BME280;60055;41.884;12.534;2023-03-21T17:15:16;100877.16;;;17.07;55.53
33414;BME280;60055;41.884;12.534;2023-03-21T17:17:44;100877.16;;;17.07;55.75
33414;BME280;60055;41.884;12.534;2023-03-21T17:20:26;100877.47;;;17.02;56.22
33414;BME280;60055;41.884;12.534;2023-03-21T17:22:54;100872.50;;;16.96;56.90
33414;BME280;60055;41.884;12.534;2023-03-21T17:25:19;100878.78;;;16.95;56.92
33414;BME280;60055;41.884;12.534;2023-03-21T17:27:46;100879.34;;;16.86;57.99
33414;BME280;60055;41.884;12.534;2023-03-21T17:30:23;100873.03;;;16.87;57.66
33414;BME280;60055;41.884;12.534;2023-03-21T17:32:50;100873.03;;;16.87;57.76
33414;BME280;60055;41.884;12.534;2023-03-21T17:35:16;100877.59;;;16.85;58.58
33414;BME280;60055;41.884;12.534;2023-03-21T17:37:42;100878.72;;;16.81;58.58
33414;BME280;60055;41.884;12.534;2023-03-21T17:40:25;100878.84;;;16.79;58.83
33414;BME280;60055;41.884;12.534;2023-03-21T17:42:52;100883.31;;;16.79;58.97
33414;BME280;60055;41.884;12.534;2023-03-21T17:45:18;100879.09;;;16.75;58.94
33414;BME280;60055;41.884;12.534;2023-03-21T17:47:47;100881.59;;;16.78;59.19
33414;BME280;60055;41.884;12.534;2023-03-21T17:50:17;100893.38;;;16.74;59.56
33414;BME280;60055;41.884;12.534;2023-03-21T17:52:43;100893.56;;;16.71;59.76
33414;BME280;60055;41.884;12.534;2023-03-21T17:55:09;100887.66;;;16.66;60.41
33414;BME280;60055;41.884;12.534;2023-03-21T17:57:35;100887.72;;;16.64;60.31
33414;BME280;60055;41.884;12.534;2023-03-21T18:00:03;100888.41;;;16.68;59.93
33414;BME280;60055;41.884;12.534;2023-03-21T18:02:33;100891.44;;;16.62;60.33
33414;BME280;60055;41.884;12.534;2023-03-21T18:04:58;100891.44;;;16.62;60.41
33414;BME280;60055;41.884;12.534;2023-03-21T18:07:24;100895.78;;;16.63;60.80
33414;BME280;60055;41.884;12.534;2023-03-21T18:09:49;100896.84;;;16.60;60.64
33414;BME280;60055;41.884;12.534;2023-03-21T18:12:14;100896.84;;;16.60;61.10
33414;BME280;60055;41.884;12.534;2023-03-21T18:14:40;100891.84;;;16.54;61.07
33414;BME280;60055;41.884;12.534;2023-03-21T18:17:05;100897.34;;;16.51;61.68
33414;BME280;60055;41.884;12.534;2023-03-21T18:19:30;100879.56;;;16.52;61.91
33414;BME280;60055;41.884;12.534;2023-03-21T18:21:58;100889.16;;;16.54;62.08
33414;BME280;60055;41.884;12.534;2023-03-21T18:24:23;100900.00;;;16.51;61.80
33414;BME280;60055;41.884;12.534;2023-03-21T18:26:48;100905.03;;;16.42;62.28
33414;BME280;60055;41.884;12.534;2023-03-21T18:29:14;100906.91;;;16.40;62.31
33414;BME280;60055;41.884;12.534;2023-03-21T18:31:42;100905.28;;;16.37;62.74
33414;BME280;60055;41.884;12.534;2023-03-21T18:34:08;100913.53;;;16.32;62.65
33414;BME280;60055;41.884;12.534;2023-03-21T18:36:33;100918.25;;;16.27;62.86
33414;BME280;60055;41.884;12.534;2023-03-21T18:38:58;100914.31;;;16.34;63.18
33414;BME280;60055;41.884;12.534;2023-03-21T18:41:26;100918.09;;;16.30;62.89
33414;BME280;60055;41.884;12.534;2023-03-21T18:43:51;100918.25;;;16.27;63.12
33414;BME280;60055;41.884;12.534;2023-03-21T18:46:17;100923.59;;;16.27;62.92
33414;BME280;60055;41.884;12.534;2023-03-21T18:48:43;100921.88;;;16.26;63.86
33414;BME280;60055;41.884;12.534;2023-03-21T18:51:08;100923.09;;;16.21;63.92
33414;BME280;60055;41.884;12.534;2023-03-21T18:53:34;100932.00;;;16.20;64.49
33414;BME280;60055;41.884;12.534;2023-03-21T18:56:00;100932.13;;;16.18;63.78
33414;BME280;60055;41.884;12.534;2023-03-21T18:58:25;100929.34;;;16.20;64.51
33414;BME280;60055;41.884;12.534;2023-03-21T19:00:53;100934.56;;;16.06;63.97
33414;BME280;60055;41.884;12.534;2023-03-21T19:03:18;100936.66;;;16.01;64.53
33414;BME280;60055;41.884;12.534;2023-03-21T19:05:44;100952.53;;;16.02;64.03
33414;BME280;60055;41.884;12.534;2023-03-21T19:08:10;100948.41;;;15.97;64.16
33414;BME280;60055;41.884;12.534;2023-03-21T19:10:35;100953.53;;;15.84;64.31
33414;BME280;60055;41.884;12.534;2023-03-21T19:13:01;100960.75;;;15.82;64.84
33414;BME280;60055;41.884;12.534;2023-03-21T19:15:27;100963.41;;;15.82;64.63
33414;BME280;60055;41.884;12.534;2023-03-21T19:17:53;100967.91;;;15.81;64.67
33414;BME280;60055;41.884;12.534;2023-03-21T19:20:19;100976.88;;;15.79;64.95
33414;BME280;60055;41.884;12.534;2023-03-21T19:22:45;100970.78;;;15.77;64.77
33414;BME280;60055;41.884;12.534;2023-03-21T19:25:16;100978.84;;;15.75;64.92
33414;BME280;60055;41.884;12.534;2023-03-21T19:27:43;100979.72;;;15.76;64.97
33414;BME280;60055;41.884;12.534;2023-03-21T19:30:10;100986.25;;;15.70;64.97
33414;BME280;60055;41.884;12.534;2023-03-21T19:32:36;100981.06;;;15.67;65.37
33414;BME280;60055;41.884;12.534;2023-03-21T19:35:03;100982.00;;;15.66;66.03
33414;BME280;60055;41.884;12.534;2023-03-21T19:37:29;100982.88;;;15.67;64.98
33414;BME280;60055;41.884;12.534;2023-03-21T19:39:54;100985.06;;;15.59;65.41
33414;BME280;60055;41.884;12.534;2023-03-21T19:42:20;100990.38;;;15.59;65.61
33414;BME280;60055;41.884;12.534;2023-03-21T19:44:48;100994.72;;;15.61;65.21
33414;BME280;60055;41.884;12.534;2023-03-21T19:47:13;100985.22;;;15.56;65.97
33414;BME280;60055;41.884;12.534;2023-03-21T19:49:39;100981.09;;;15.50;65.98
33414;BME280;60055;41.884;12.534;2023-03-21T19:52:08;100988.00;;;15.54;66.08
33414;BME280;60055;41.884;12.534;2023-03-21T19:54:34;100995.19;;;15.52;66.43
33414;BME280;60055;41.884;12.534;2023-03-21T19:56:59;100991.50;;;15.38;67.15
33414;BME280;60055;41.884;12.534;2023-03-21T19:59:25;100985.69;;;15.47;66.90
33414;BME280;60055;41.884;12.534;2023-03-21T20:01:51;100989.38;;;15.44;66.44
33414;BME280;60055;41.884;12.534;2023-03-21T20:04:16;100993.75;;;15.28;67.67
33414;BME280;60055;41.884;12.534;2023-03-21T20:06:43;100987.88;;;15.39;67.81
33414;BME280;60055;41.884;12.534;2023-03-21T20:09:08;100987.97;;;15.37;67.10
33414;BME280;60055;41.884;12.534;2023-03-21T20:11:34;100986.06;;;15.39;67.39
33414;BME280;60055;41.884;12.534;2023-03-21T20:13:59;100989.50;;;15.41;67.34
33414;BME280;60055;41.884;12.534;2023-03-21T20:16:27;100994.16;;;15.38;67.79
33414;BME280;60055;41.884;12.534;2023-03-21T20:18:53;100983.50;;;15.38;67.29
33414;BME280;60055;41.884;12.534;2023-03-21T20:21:18;100991.56;;;15.36;67.50
33414;BME280;60055;41.884;12.534;2023-03-21T20:23:47;100993.19;;;15.39;67.20
33414;BME280;60055;41.884;12.534;2023-03-21T20:26:15;100992.44;;;15.37;67.31
33414;BME280;60055;41.884;12.534;2023-03-21T20:28:40;100993.44;;;15.34;66.90
33414;BME280;60055;41.884;12.534;2023-03-21T20:31:06;101002.19;;;15.36;67.53
33414;BME280;60055;41.884;12.534;2023-03-21T20:33:33;101002.38;;;15.33;67.41
33414;BME280;60055;41.884;12.534;2023-03-21T20:36:02;101006.06;;;15.30;67.28
33414;BME280;60055;41.884;12.534;2023-03-21T20:38:30;101004.88;;;15.36;66.84
33414;BME280;60055;41.884;12.534;2023-03-21T20:41:00;101011.28;;;15.32;67.18
33414;BME280;60055;41.884;12.534;2023-03-21T20:43:26;101007.69;;;15.33;66.74
33414;BME280;60055;41.884;12.534;2023-03-21T20:46:03;101005.00;;;15.16;67.67
33414;BME280;60055;41.884;12.534;2023-03-21T20:48:29;101000.19;;;15.24;67.10
33414;BME280;60055;41.884;12.534;2023-03-21T20:51:00;100995.56;;;15.27;66.81
33414;BME280;60055;41.884;12.534;2023-03-21T20:53:27;100999.06;;;15.28;66.94
33414;BME280;60055;41.884;12.534;2023-03-21T20:55:52;100992.91;;;15.27;67.00
33414;BME280;60055;41.884;12.534;2023-03-21T20:58:18;100993.75;;;15.28;66.72
33414;BME280;60055;41.884;12.534;2023-03-21T21:00:44;100992.03;;;15.27;66.67
33414;BME280;60055;41.884;12.534;2023-03-21T21:03:10;100996.34;;;15.29;66.49
33414;BME280;60055;41.884;12.534;2023-03-21T21:05:37;100986.47;;;15.31;66.67
33414;BME280;60055;41.884;12.534;2023-03-21T21:08:02;100992.75;;;15.30;66.25
33414;BME280;60055;41.884;12.534;2023-03-21T21:10:27;100994.44;;;15.31;66.29
33414;BME280;60055;41.884;12.534;2023-03-21T21:12:53;100993.19;;;15.21;66.21
33414;BME280;60055;41.884;12.534;2023-03-21T21:15:19;101001.81;;;15.26;66.11
33414;BME280;60055;41.884;12.534;2023-03-21T21:17:48;101000.88;;;15.27;65.96
33414;BME280;60055;41.884;12.534;2023-03-21T21:20:16;100995.69;;;15.24;66.52
33414;BME280;60055;41.884;12.534;2023-03-21T21:22:43;100997.75;;;15.19;66.61
33414;BME280;60055;41.884;12.534;2023-03-21T21:25:09;101001.97;;;15.23;65.91
33414;BME280;60055;41.884;12.534;2023-03-21T21:27:35;101004.09;;;15.17;66.34
33414;BME280;60055;41.884;12.534;2023-03-21T21:30:00;101008.06;;;15.08;66.34
33414;BME280;60055;41.884;12.534;2023-03-21T21:32:27;101008.00;;;15.10;65.89
33414;BME280;60055;41.884;12.534;2023-03-21T21:34:56;101012.13;;;15.15;65.91
33414;BME280;60055;41.884;12.534;2023-03-21T21:37:22;101003.53;;;15.10;65.54
33414;BME280;60055;41.884;12.534;2023-03-21T21:39:49;101001.66;;;15.12;65.82
33414;BME280;60055;41.884;12.534;2023-03-21T21:42:14;101010.72;;;15.08;65.58
33414;BME280;60055;41.884;12.534;2023-03-21T21:44:40;101004.69;;;15.05;65.72
33414;BME280;60055;41.884;12.534;2023-03-21T21:47:10;101007.19;;;15.08;64.95
33414;BME280;60055;41.884;12.534;2023-03-21T21:49:36;101008.00;;;15.10;64.79
33414;BME280;60055;41.884;12.534;2023-03-21T21:52:01;101012.81;;;15.02;64.31
33414;BME280;60055;41.884;12.534;2023-03-21T21:54:28;101003.03;;;15.02;64.31
33414;BME280;60055;41.884;12.534;2023-03-21T21:56:54;101012.75;;;15.03;64.21
33414;BME280;60055;41.884;12.534;2023-03-21T21:59:22;101007.28;;;15.06;64.05
33414;BME280;60055;41.884;12.534;2023-03-21T22:01:48;101002.66;;;15.10;64.14
33414;BME280;60055;41.884;12.534;2023-03-21T22:04:15;101013.53;;;15.05;64.11
33414;BME280;60055;41.884;12.534;2023-03-21T22:06:42;101018.22;;;15.00;64.07
33414;BME280;60055;41.884;12.534;2023-03-21T22:09:08;101014.72;;;15.00;64.08